Canaan, CT

7:38 PM EDT on October 20, 2014 (GMT -0400)
Great Mountain Forest | Change Station
CLOSE
Current Station
Personal Weather Station
Location: Norfolk, CT
Elevation: 1403 ft
Nearby Weather Stations

Elev 1403 ft 41.97 °N, 73.23 °W | Updated 2 seconds ago

Mostly Cloudy
Mostly Cloudy
42.4 °F
Feels Like 42 °F
N
0.0
Wind Variable Wind from SSE
Gusts 1.0 mph

Today
High -- | Low -- °F
--% Chance of Precip.
Yesterday
High -- | Low -- °F
Precip. -- in
7:11 AM 6:03 PM
Waning Crescent, 8% visible
Pressure 29.95 in
Visibility 10.0 miles
Clouds Overcast 9000 ft
Windchill 42 °F
Dew Point 38 °F
Humidity 86%
Rainfall 0.00 in
Snow Depth Not available.
UV 0 out of 12
Pollen .90 out of 12
PM2.5 Good
Flu Activity Sporadic
METAR KPSF 202254Z AUTO 00000KT 10SM OVC090 09/02 A2994 RMK AO2 SLP140 T00890017

More Conditions Fewer Conditions

Pressure 29.95 in
Visibility 10.0 miles
Clouds Overcast 9000 ft
Windchill 42 °F
Dew Point 38 °F
Humidity 86%
Rainfall 0.00 in
Snow Depth Not available.
UV 0 out of 12
Pollen .90 out of 12
PM2.5 Good
Flu Activity Sporadic
METAR KPSF 202254Z AUTO 00000KT 10SM OVC090 09/02 A2994 RMK AO2 SLP140 T00890017

More Conditions Fewer Conditions

10-Day Weather Forecast

Almanac

Astronomy

Oct. 20, 2014 Rise Set
Actual Time 7:11 AM EDT 6:03 PM EDT
Civil Twilight 6:43 AM EDT 6:32 PM EDT
Nautical Twilight 6:10 AM EDT 7:04 PM EDT
Astronomical Twilight 5:38 AM EDT 7:36 PM EDT
Moon 3:54 AM EDT 4:27 PM EDT
Length of Visible Light 11h 49m
Length of Day
10h 52m
Tomorrow will be 2m 40s shorter.
Waning Crescent, 8% of the Moon is Illuminated
Today
Waning Crescent
Oct 23
New
Oct 30
First Quarter
Nov 6
Full
Nov 14
Last Quarter

Today's Extremes

State Highs State Lows

Community

WunderPhotos

Upload Photos

1,763,546 photos uploaded!

WunderBlogs® & News

By Dr. Jeff Masters
Director of Meteorology, Weather Underground
By Kari Strenfel
Meteorologist, Weather Underground
By Christopher C. Burt
Weather Historian, Weather Underground
October 20, 2014
October 20, 2014
October 20, 2014

Nearby

Air Quality

  Air Quality AQ Index Pollutant
Yesterday Good
PM10
Current Good
PM2.5
Monday Good
PM2.5

Snow Depth

Station Depth Elevation
No new snow has been reported.

Earthquake Activity

City Distance Mag. Time & Date
No recent earthquake activity has been reported nearby.
Minimum magnitude displayed is 2.5.

Coastal Water Temperatures

Place Temperature
No Stations Reporting

Nearby Weather Stations